X  Schließen METAR Luftfahrt Wetterdaten        EDDB TXL
Temperatur
9°C Temperatur
7°C Taupunkt
87% Feuchtigkeit



Wind
15 km/h
9 MPS
4 M/S
8 KTS



220°
SW
Aktuelle Wetterlage

Partly Cloudy Teilweise bewölkt
Luftdruck 1023 (hPa) - 30.21 (inHg)
Sichtweite 30 (Meile) - 48 (Km)
Flughafen
Flughafen Code EDDB

Position : TXL
Entfernung: 10 (Km)

Metar:
METAR EDDB 180620Z 22008KT 9999 SCT042 09/07 Q1023 NOSIG

Zeit: 18.10.2021 08:20 CEST